Empire, Alabama
Current Conditions -  °F | °C
As of 10:15 AM on Sunday 23 Nov 2014 (Local Time) from KJFX Reporting Station
Haze Haze  
Wind Chill: 59°   Ceiling: 500
Heat Index: 59°   Visibility: 2.5mi
Dew Point: 57°   Wind: 7mph
Humidity: 94%   Direction: 120°ESE
Pressure: 29.77"   Gusts: NA
Location:  33.81°N, 87.01°W
Report Text: KJFX 231615Z AUTO 12006KT 2 1/2SM BR OVC005 15/14 A2977 RMK A02 LTG DSNT SE AND S P-128
Loading
Personal Weather Stations






























Interactive Weather Map New forecast layout! Learn more

10-Day Weather Forecast

Advertisements
Track Severe Weather on mobile